createdAt,value
2018-10-04T00:01:04.462Z,4.00
2018-10-04T00:03:32.887Z,4.00
2018-10-04T00:06:01.533Z,3.90
2018-10-04T00:08:30.050Z,3.80
2018-10-04T00:10:58.499Z,3.70
2018-10-04T00:13:26.901Z,3.60
2018-10-04T00:15:55.412Z,3.70
2018-10-04T00:18:23.848Z,3.70
2018-10-04T00:20:52.246Z,3.70
2018-10-04T00:23:20.664Z,3.70
2018-10-04T00:25:49.064Z,3.60
2018-10-04T00:28:17.492Z,3.50
2018-10-04T00:30:45.912Z,3.40
2018-10-04T00:33:14.313Z,3.30
2018-10-04T00:35:42.770Z,3.40
2018-10-04T00:38:11.156Z,3.30
2018-10-04T00:40:39.580Z,3.30
2018-10-04T00:43:07.999Z,3.20
2018-10-04T00:45:36.430Z,3.30
2018-10-04T00:48:04.894Z,3.20
2018-10-04T00:50:33.316Z,3.20
2018-10-04T00:53:01.760Z,3.10
2018-10-04T00:55:30.190Z,3.20
2018-10-04T00:57:58.625Z,3.20
2018-10-04T01:00:27.049Z,3.20
2018-10-04T01:02:55.471Z,3.10
2018-10-04T01:05:23.921Z,3.00
2018-10-04T01:07:52.594Z,3.00
2018-10-04T01:10:21.167Z,2.90
2018-10-04T01:12:49.748Z,2.90
2018-10-04T01:15:18.179Z,2.90
2018-10-04T01:17:46.600Z,2.90
2018-10-04T01:20:15.006Z,2.90
2018-10-04T01:22:43.436Z,2.90
2018-10-04T01:25:11.888Z,2.90
2018-10-04T01:27:40.422Z,2.80
2018-10-04T01:30:08.873Z,2.80
2018-10-04T01:32:37.289Z,2.80
2018-10-04T01:35:05.758Z,2.90
2018-10-04T01:37:34.176Z,2.80
2018-10-04T01:40:02.633Z,2.90
2018-10-04T01:42:31.047Z,2.90
2018-10-04T01:44:59.450Z,2.80
2018-10-04T01:47:27.869Z,2.80
2018-10-04T01:49:56.286Z,2.80
2018-10-04T01:52:24.708Z,2.70
2018-10-04T01:54:53.118Z,2.70
2018-10-04T01:57:21.523Z,2.70
2018-10-04T01:59:49.989Z,2.70
2018-10-04T02:02:18.411Z,2.70
2018-10-04T02:04:46.831Z,2.70
2018-10-04T02:07:15.289Z,2.60
2018-10-04T02:09:43.754Z,2.50
2018-10-04T02:12:12.201Z,2.40
2018-10-04T02:14:40.665Z,2.50
2018-10-04T02:17:09.198Z,2.40
2018-10-04T02:19:37.713Z,2.40
2018-10-04T02:22:06.475Z,2.40
2018-10-04T02:24:34.941Z,2.60
2018-10-04T02:27:03.373Z,2.50
2018-10-04T02:29:31.802Z,2.50
2018-10-04T02:32:00.241Z,2.40
2018-10-04T02:34:28.641Z,2.50
2018-10-04T02:36:57.095Z,2.30
2018-10-04T02:39:25.541Z,2.30
2018-10-04T02:41:53.975Z,2.30
2018-10-04T02:44:22.404Z,2.20
2018-10-04T02:46:50.817Z,2.10
2018-10-04T02:49:19.278Z,2.20
2018-10-04T02:51:47.716Z,2.10
2018-10-04T02:54:21.457Z,2.10
2018-10-04T02:56:53.332Z,2.00
2018-10-04T02:59:22.536Z,2.10
2018-10-04T03:01:51.219Z,2.00
2018-10-04T03:04:20.035Z,2.00
2018-10-04T03:06:48.825Z,2.00
2018-10-04T03:09:18.141Z,2.00
2018-10-04T03:11:46.627Z,2.00
2018-10-04T03:14:15.152Z,1.90
2018-10-04T03:16:43.728Z,2.00
2018-10-04T03:19:12.736Z,1.90
2018-10-04T03:21:41.185Z,1.80
2018-10-04T03:24:09.752Z,1.80
2018-10-04T03:26:38.288Z,1.80
2018-10-04T03:29:07.142Z,1.80
2018-10-04T03:31:35.579Z,1.80
2018-10-04T03:34:04.116Z,1.90
2018-10-04T03:36:32.558Z,1.90
2018-10-04T03:39:01.059Z,1.90
2018-10-04T03:41:29.489Z,1.80
2018-10-04T03:43:58.154Z,1.80
2018-10-04T03:46:26.584Z,1.80
2018-10-04T03:48:55.070Z,1.80
2018-10-04T03:51:23.707Z,1.70
2018-10-04T03:53:52.124Z,1.60
2018-10-04T03:56:20.549Z,1.60
2018-10-04T03:58:48.975Z,1.60
2018-10-04T04:01:17.624Z,1.60
2018-10-04T04:03:46.158Z,1.50
2018-10-04T04:06:14.586Z,1.40
2018-10-04T04:08:43.122Z,1.40
2018-10-04T04:11:11.822Z,1.50
2018-10-04T04:13:40.488Z,1.50
2018-10-04T04:16:08.928Z,1.50
2018-10-04T04:18:37.857Z,1.40
2018-10-04T04:21:06.644Z,1.40
2018-10-04T04:23:52.529Z,1.40
2018-10-04T04:26:21.510Z,1.40
2018-10-04T04:28:51.220Z,1.30
2018-10-04T04:35:41.479Z,1.30
2018-10-04T04:38:09.893Z,1.30
2018-10-04T04:40:38.387Z,1.30
2018-10-04T04:43:06.993Z,1.40
2018-10-04T04:45:35.432Z,1.40
2018-10-04T04:48:04.043Z,1.40
2018-10-04T04:50:32.943Z,1.30
2018-10-04T04:55:25.681Z,1.40
2018-10-04T04:57:55.263Z,1.30
2018-10-04T05:02:35.290Z,1.30
2018-10-04T05:05:03.917Z,1.10
2018-10-04T05:07:32.579Z,1.10
2018-10-04T05:10:01.188Z,1.20
2018-10-04T05:12:30.031Z,1.20
2018-10-04T05:14:58.514Z,1.10
2018-10-04T05:17:26.996Z,1.10
2018-10-04T05:19:55.419Z,1.20
2018-10-04T05:22:24.284Z,1.20
2018-10-04T05:24:53.344Z,1.30
2018-10-04T05:27:21.905Z,1.20
2018-10-04T05:29:50.736Z,1.30
2018-10-04T05:32:20.725Z,1.30
2018-10-04T05:34:49.443Z,1.30
2018-10-04T05:37:18.407Z,1.30
2018-10-04T05:39:47.057Z,1.40
2018-10-04T05:42:15.503Z,1.50
2018-10-04T05:44:44.775Z,1.60
2018-10-04T05:47:14.381Z,1.50
2018-10-04T05:49:43.504Z,1.50
2018-10-04T05:52:12.190Z,1.50
2018-10-04T05:54:41.158Z,1.60
2018-10-04T05:57:09.680Z,1.60
2018-10-04T05:59:38.489Z,1.60
2018-10-04T06:02:07.395Z,1.70
2018-10-04T06:04:36.305Z,1.80
2018-10-04T06:07:04.810Z,1.90
2018-10-04T06:09:33.388Z,2.00
2018-10-04T06:12:01.892Z,2.10
2018-10-04T06:14:30.546Z,2.20
2018-10-04T06:16:59.227Z,2.30
2018-10-04T06:19:27.680Z,2.40
2018-10-04T06:21:56.226Z,2.50
2018-10-04T06:24:24.669Z,2.60
2018-10-04T06:26:53.113Z,2.70
2018-10-04T06:29:21.557Z,2.70
2018-10-04T06:31:50.009Z,2.80
2018-10-04T06:34:18.453Z,2.90
2018-10-04T06:36:46.871Z,2.90
2018-10-04T06:39:15.469Z,3.10
2018-10-04T06:41:43.915Z,3.20
2018-10-04T06:44:12.401Z,3.40
2018-10-04T06:46:40.745Z,3.40
2018-10-04T06:49:09.171Z,3.50
2018-10-04T06:51:37.642Z,3.70
2018-10-04T06:54:06.102Z,3.90
2018-10-04T06:56:34.567Z,4.00
2018-10-04T06:59:02.988Z,4.10
2018-10-04T07:01:31.383Z,4.30
2018-10-04T07:04:00.363Z,4.70
2018-10-04T07:06:28.705Z,4.80
2018-10-04T07:08:57.239Z,4.90
2018-10-04T07:11:25.923Z,5.20
2018-10-04T07:13:54.381Z,5.40
2018-10-04T07:16:22.820Z,5.40
2018-10-04T07:18:51.281Z,5.70
2018-10-04T07:21:19.747Z,5.80
2018-10-04T07:23:48.173Z,6.50
2018-10-04T07:26:16.669Z,7.90
2018-10-04T07:28:45.094Z,9.00
2018-10-04T07:31:13.720Z,11.10
2018-10-04T07:33:42.237Z,12.60
2018-10-04T07:36:10.693Z,14.20
2018-10-04T07:41:07.954Z,15.80
2018-10-04T07:43:36.390Z,16.20
2018-10-04T07:46:04.833Z,16.50
2018-10-04T07:48:33.259Z,18.90
2018-10-04T07:51:01.627Z,18.60
2018-10-04T07:53:30.062Z,19.20
2018-10-04T07:55:58.514Z,20.50
2018-10-04T07:58:27.048Z,22.10
2018-10-04T08:00:55.486Z,21.70
2018-10-04T08:03:23.954Z,24.00
2018-10-04T08:05:52.478Z,22.40
2018-10-04T08:08:20.950Z,23.00
2018-10-04T08:10:49.564Z,24.60
2018-10-04T08:13:18.017Z,24.40
2018-10-04T08:15:46.632Z,24.70
2018-10-04T08:18:15.079Z,25.70
2018-10-04T08:20:43.660Z,26.80
2018-10-04T08:23:12.123Z,26.20
2018-10-04T08:25:40.824Z,26.50
2018-10-04T08:28:09.286Z,27.10
2018-10-04T08:30:37.708Z,28.20
2018-10-04T08:33:06.278Z,27.70
2018-10-04T08:35:34.714Z,27.70
2018-10-04T08:38:03.320Z,28.20
2018-10-04T08:40:31.794Z,28.30
2018-10-04T08:43:06.884Z,28.00
2018-10-04T08:45:35.416Z,28.90
2018-10-04T08:48:03.974Z,29.70
2018-10-04T08:50:32.434Z,29.10
2018-10-04T08:53:00.875Z,27.90
2018-10-04T08:55:34.464Z,27.00
2018-10-04T08:58:03.076Z,28.60
2018-10-04T09:00:32.417Z,29.00
2018-10-04T09:03:03.170Z,29.40
2018-10-04T09:05:32.102Z,30.30
2018-10-04T09:08:00.648Z,29.20
2018-10-04T09:10:29.422Z,30.10
2018-10-04T09:12:57.972Z,29.50
2018-10-04T09:15:26.659Z,28.20
2018-10-04T09:17:55.094Z,29.60
2018-10-04T09:20:23.658Z,29.70
2018-10-04T09:22:52.079Z,30.90
2018-10-04T09:25:20.695Z,31.00
2018-10-04T09:27:49.169Z,30.30
2018-10-04T09:30:22.960Z,29.90
2018-10-04T09:32:51.472Z,29.80
2018-10-04T09:35:19.945Z,30.50
2018-10-04T09:37:48.367Z,30.00
2018-10-04T09:40:16.883Z,31.60
2018-10-04T09:42:51.175Z,30.90
2018-10-04T09:45:20.019Z,31.40
2018-10-04T09:47:50.906Z,30.80
2018-10-04T09:50:19.364Z,33.20
2018-10-04T09:52:47.745Z,33.50
2018-10-04T09:55:16.284Z,33.90
2018-10-04T09:57:46.086Z,31.50
2018-10-04T10:00:19.936Z,31.50
2018-10-04T10:02:53.038Z,30.60
2018-10-04T10:05:21.585Z,31.10
2018-10-04T10:07:51.024Z,29.90
2018-10-04T10:10:19.581Z,30.50
2018-10-04T10:12:48.683Z,31.90
2018-10-04T10:15:17.247Z,31.90
2018-10-04T10:17:45.651Z,29.40
2018-10-04T10:20:14.126Z,31.30
2018-10-04T10:22:42.608Z,31.70
2018-10-04T10:25:11.161Z,33.20
2018-10-04T10:27:39.688Z,33.60
2018-10-04T10:30:08.013Z,32.10
2018-10-04T10:32:36.543Z,33.20
2018-10-04T10:35:05.033Z,33.80
2018-10-04T10:37:33.513Z,32.50
2018-10-04T10:40:02.008Z,31.70
2018-10-04T10:42:30.439Z,30.70
2018-10-04T10:44:58.990Z,31.20
2018-10-04T10:47:27.448Z,30.70
2018-10-04T10:49:56.136Z,29.70
2018-10-04T10:52:24.576Z,28.30
2018-10-04T10:54:53.120Z,29.50
2018-10-04T10:57:21.635Z,29.60
2018-10-04T10:59:50.072Z,28.80
2018-10-04T11:02:18.524Z,28.10
2018-10-04T11:04:46.967Z,27.80
2018-10-04T11:07:15.448Z,27.10
2018-10-04T11:09:43.893Z,27.00
2018-10-04T11:12:12.318Z,26.40
2018-10-04T11:14:40.745Z,25.40
2018-10-04T11:17:09.289Z,24.50
2018-10-04T11:19:37.639Z,24.20
2018-10-04T11:22:06.278Z,23.90
2018-10-04T11:24:34.874Z,23.40
2018-10-04T11:27:03.254Z,23.80
2018-10-04T11:29:31.643Z,24.20
2018-10-04T11:32:00.051Z,24.40
2018-10-04T11:34:28.490Z,24.10
2018-10-04T11:36:57.000Z,23.60
2018-10-04T11:39:25.531Z,22.90
2018-10-04T11:41:53.972Z,22.60
2018-10-04T11:44:25.314Z,23.10
2018-10-04T11:46:57.767Z,23.20
2018-10-04T11:49:26.296Z,23.90
2018-10-04T11:51:54.984Z,23.70
2018-10-04T11:54:23.447Z,24.40
2018-10-04T11:56:52.064Z,25.00
2018-10-04T11:59:20.511Z,25.10
2018-10-04T12:01:49.012Z,24.50
2018-10-04T12:04:17.485Z,23.80
2018-10-04T12:06:46.014Z,23.20
2018-10-04T12:09:14.449Z,23.40
2018-10-04T12:11:42.898Z,23.60
2018-10-04T12:14:11.339Z,23.70
2018-10-04T12:16:39.801Z,23.60
2018-10-04T12:19:08.247Z,23.10
2018-10-04T12:21:36.713Z,23.50
2018-10-04T12:24:05.264Z,22.80
2018-10-04T12:26:33.758Z,22.80
2018-10-04T12:29:02.362Z,23.20
2018-10-04T12:31:30.935Z,22.50
2018-10-04T12:33:59.318Z,22.60
2018-10-04T12:36:27.879Z,23.30
2018-10-04T12:38:56.334Z,23.90
2018-10-04T12:41:24.776Z,23.00
2018-10-04T12:43:53.265Z,22.70
2018-10-04T12:46:21.725Z,22.60
2018-10-04T12:48:50.331Z,22.70
2018-10-04T12:51:18.829Z,23.00
2018-10-04T12:53:47.238Z,23.60
2018-10-04T12:56:15.716Z,23.60
2018-10-04T12:58:44.205Z,23.90
2018-10-04T13:01:12.658Z,24.40
2018-10-04T13:03:41.077Z,23.70
2018-10-04T13:06:09.573Z,24.10
2018-10-04T13:08:38.052Z,24.20
2018-10-04T13:11:06.504Z,23.70
2018-10-04T13:13:34.976Z,23.30
2018-10-04T13:16:03.385Z,23.90
2018-10-04T13:18:31.877Z,24.10
2018-10-04T13:21:07.316Z,24.60
2018-10-04T13:23:36.009Z,24.40
2018-10-04T13:26:04.998Z,24.00
2018-10-04T13:28:33.469Z,23.60
2018-10-04T13:31:01.892Z,24.20
2018-10-04T13:33:30.393Z,24.00
2018-10-04T13:35:59.171Z,24.20
2018-10-04T13:38:27.585Z,24.10
2018-10-04T13:40:55.987Z,23.80
2018-10-04T13:43:24.424Z,24.10
2018-10-04T13:45:53.952Z,23.90
2018-10-04T13:48:47.267Z,23.40
2018-10-04T13:51:16.980Z,23.20
2018-10-04T13:53:45.438Z,22.80
2018-10-04T13:56:13.884Z,22.40
2018-10-04T13:58:43.714Z,21.90
2018-10-04T14:01:44.426Z,22.00
2018-10-04T14:04:13.552Z,22.10
2018-10-04T14:06:42.485Z,21.90
2018-10-04T14:09:12.231Z,21.70
2018-10-04T14:11:40.898Z,21.20
2018-10-04T14:14:09.531Z,21.00
2018-10-04T14:16:56.771Z,20.60
2018-10-04T14:19:25.508Z,20.00
2018-10-04T14:21:54.095Z,19.90
2018-10-04T14:24:22.767Z,19.50
2018-10-04T14:26:51.309Z,19.40
2018-10-04T14:29:20.304Z,19.10
2018-10-04T14:31:48.752Z,18.80
2018-10-04T14:34:17.301Z,18.90
2018-10-04T14:36:45.739Z,19.00
2018-10-04T14:39:14.257Z,19.20
2018-10-04T14:41:42.623Z,19.30
2018-10-04T14:44:11.147Z,19.30
2018-10-04T14:46:39.757Z,19.30
2018-10-04T14:49:08.444Z,19.00
2018-10-04T14:51:37.133Z,18.90
2018-10-04T14:54:05.565Z,18.70
2018-10-04T14:56:34.441Z,18.50
2018-10-04T14:59:02.917Z,18.40
2018-10-04T15:01:31.709Z,18.20
2018-10-04T15:04:00.147Z,18.00
2018-10-04T15:06:28.780Z,17.90
2018-10-04T15:08:57.526Z,17.70
2018-10-04T15:11:26.070Z,17.50
2018-10-04T15:13:54.618Z,17.40
2018-10-04T15:16:23.083Z,17.20
2018-10-04T15:18:51.556Z,17.20
2018-10-04T15:21:19.983Z,17.10
2018-10-04T15:23:48.419Z,17.00
2018-10-04T15:26:16.864Z,17.00
2018-10-04T15:28:45.365Z,17.00
2018-10-04T15:31:13.787Z,16.90
2018-10-04T15:33:42.204Z,16.80
2018-10-04T15:36:10.674Z,16.80
2018-10-04T15:38:39.142Z,16.70
2018-10-04T15:41:07.596Z,16.60
2018-10-04T15:43:36.019Z,16.60
2018-10-04T15:46:04.609Z,16.40
2018-10-04T15:48:33.213Z,16.40
2018-10-04T15:51:01.840Z,16.30
2018-10-04T15:53:30.277Z,16.30
2018-10-04T15:55:58.830Z,16.20
2018-10-04T15:58:27.587Z,16.10
2018-10-04T16:00:56.072Z,16.10
2018-10-04T16:03:24.625Z,16.00
2018-10-04T16:05:53.703Z,15.90
2018-10-04T16:08:22.160Z,15.80
2018-10-04T16:10:50.974Z,15.70
2018-10-04T16:13:19.418Z,15.60
2018-10-04T16:15:49.832Z,15.50
2018-10-04T16:18:18.911Z,15.40
2018-10-04T16:20:47.506Z,15.30
2018-10-04T16:23:16.110Z,15.20
2018-10-04T16:25:44.900Z,15.10
2018-10-04T16:28:14.190Z,15.00
2018-10-04T16:30:42.745Z,14.80
2018-10-04T16:33:11.187Z,14.70
2018-10-04T16:35:39.617Z,14.50
2018-10-04T16:38:08.101Z,14.30
2018-10-04T16:40:36.696Z,14.20
2018-10-04T16:43:05.437Z,14.00
2018-10-04T16:45:34.297Z,13.80
2018-10-04T16:48:02.868Z,13.70
2018-10-04T16:50:31.393Z,13.50
2018-10-04T16:52:59.818Z,13.30
2018-10-04T16:55:28.252Z,13.10
2018-10-04T16:57:56.738Z,13.00
2018-10-04T17:00:25.457Z,12.90
2018-10-04T17:02:53.874Z,12.70
2018-10-04T17:05:22.377Z,12.50
2018-10-04T17:07:50.764Z,12.50
2018-10-04T17:10:19.214Z,12.30
2018-10-04T17:12:47.676Z,12.10
2018-10-04T17:15:16.249Z,12.00
2018-10-04T17:17:44.691Z,12.00
2018-10-04T17:20:13.343Z,11.80
2018-10-04T17:22:41.862Z,11.60
2018-10-04T17:25:10.402Z,11.60
2018-10-04T17:27:38.851Z,11.40
2018-10-04T17:30:07.273Z,11.30
2018-10-04T17:32:35.739Z,11.20
2018-10-04T17:35:04.151Z,11.10
2018-10-04T17:37:32.661Z,11.00
2018-10-04T17:40:01.106Z,11.00
2018-10-04T17:42:29.564Z,11.00
2018-10-04T17:44:58.113Z,10.80
2018-10-04T17:47:26.797Z,10.70
2018-10-04T17:49:55.371Z,10.60
2018-10-04T17:52:24.163Z,10.50
2018-10-04T17:54:53.783Z,10.30
2018-10-04T17:57:22.695Z,10.30
2018-10-04T17:59:51.318Z,10.20
2018-10-04T18:02:19.802Z,10.10
2018-10-04T18:04:48.429Z,9.90
2018-10-04T18:07:17.002Z,9.80
2018-10-04T18:09:45.441Z,9.80
2018-10-04T18:12:13.969Z,9.70
2018-10-04T18:14:42.786Z,9.60
2018-10-04T18:17:11.336Z,9.60
2018-10-04T18:19:39.853Z,9.50
2018-10-04T18:22:08.346Z,9.40
2018-10-04T18:24:36.745Z,9.30
2018-10-04T18:27:05.417Z,9.30
2018-10-04T18:29:35.410Z,9.30
2018-10-04T18:32:03.863Z,9.10
2018-10-04T18:34:32.321Z,9.10
2018-10-04T18:37:00.851Z,9.10
2018-10-04T18:39:29.400Z,9.00
2018-10-04T18:41:58.254Z,9.00
2018-10-04T18:44:26.895Z,8.90
2018-10-04T18:46:55.392Z,8.80
2018-10-04T18:49:24.026Z,8.70
2018-10-04T18:51:53.963Z,8.70
2018-10-04T18:54:22.412Z,8.70
2018-10-04T18:56:50.850Z,8.70
2018-10-04T18:59:19.555Z,8.60
2018-10-04T19:01:48.018Z,8.50
2018-10-04T19:04:16.739Z,8.50
2018-10-04T19:06:45.143Z,8.50
2018-10-04T19:09:14.245Z,8.50
2018-10-04T19:11:42.735Z,8.50
2018-10-04T19:14:11.180Z,8.60
2018-10-04T19:16:40.423Z,8.50
2018-10-04T19:19:08.897Z,8.50
2018-10-04T19:21:37.504Z,8.40
2018-10-04T19:24:05.975Z,8.40
2018-10-04T19:26:34.440Z,8.40
2018-10-04T19:29:02.987Z,8.30
2018-10-04T19:31:32.850Z,8.30
2018-10-04T19:34:01.624Z,8.30
2018-10-04T19:36:30.104Z,8.20
2018-10-04T19:38:58.559Z,8.10
2018-10-04T19:41:27.002Z,8.10
2018-10-04T19:43:55.660Z,8.10
2018-10-04T19:46:24.056Z,8.00
2018-10-04T19:48:52.556Z,8.00
2018-10-04T19:51:21.126Z,8.00
2018-10-04T19:53:49.544Z,8.00
2018-10-04T19:56:17.989Z,7.90
2018-10-04T19:58:46.434Z,7.80
2018-10-04T20:01:14.859Z,7.80
2018-10-04T20:03:43.291Z,7.80
2018-10-04T20:06:11.718Z,7.80
2018-10-04T20:08:40.144Z,7.80
2018-10-04T20:11:08.822Z,7.70
2018-10-04T20:13:37.246Z,7.80
2018-10-04T20:16:05.799Z,7.90
2018-10-04T20:18:34.230Z,7.90
2018-10-04T20:21:02.821Z,8.00
2018-10-04T20:23:31.233Z,7.90
2018-10-04T20:25:59.697Z,7.80
2018-10-04T20:28:28.245Z,7.60
2018-10-04T20:30:57.613Z,7.60
2018-10-04T20:33:27.130Z,7.40
2018-10-04T20:35:55.622Z,7.30
2018-10-04T20:38:24.041Z,7.30
2018-10-04T20:40:52.526Z,7.20
2018-10-04T20:43:20.971Z,7.20
2018-10-04T20:45:49.411Z,7.20
2018-10-04T20:48:17.886Z,7.10
2018-10-04T20:50:46.340Z,7.00
2018-10-04T20:53:14.769Z,7.10
2018-10-04T20:55:43.242Z,7.20
2018-10-04T20:58:11.661Z,7.30
2018-10-04T21:00:40.101Z,7.10
2018-10-04T21:03:08.587Z,7.00
2018-10-04T21:05:36.962Z,6.90
2018-10-04T21:08:05.675Z,6.80
2018-10-04T21:10:34.057Z,6.80
2018-10-04T21:13:02.481Z,6.70
2018-10-04T21:15:30.903Z,6.80
2018-10-04T21:17:59.328Z,6.70
2018-10-04T21:20:27.762Z,6.80
2018-10-04T21:22:56.239Z,6.90
2018-10-04T21:25:24.627Z,6.80
2018-10-04T21:27:53.062Z,6.70
2018-10-04T21:30:21.493Z,6.50
2018-10-04T21:32:49.915Z,6.40
2018-10-04T21:35:18.363Z,6.30
2018-10-04T21:37:46.796Z,6.20
2018-10-04T21:40:15.255Z,6.10
2018-10-04T21:42:43.992Z,6.20
2018-10-04T21:45:12.442Z,6.10
2018-10-04T21:47:41.039Z,6.10
2018-10-04T21:50:09.480Z,6.30
2018-10-04T21:52:37.865Z,6.30
2018-10-04T21:55:06.355Z,6.30
2018-10-04T21:57:34.821Z,6.30
2018-10-04T22:00:03.298Z,6.10
2018-10-04T22:02:31.718Z,6.10
2018-10-04T22:05:00.193Z,6.00
2018-10-04T22:07:28.961Z,5.90
2018-10-04T22:09:57.379Z,6.00
2018-10-04T22:12:25.837Z,6.10
2018-10-04T22:14:54.263Z,6.30
2018-10-04T22:17:22.759Z,6.30
2018-10-04T22:19:51.429Z,6.20
2018-10-04T22:22:19.902Z,6.10
2018-10-04T22:24:48.355Z,6.00
2018-10-04T22:27:16.741Z,5.90
2018-10-04T22:29:45.175Z,5.80
2018-10-04T22:32:13.825Z,5.80
2018-10-04T22:34:42.498Z,5.70
2018-10-04T22:37:10.949Z,5.70
2018-10-04T22:39:39.381Z,5.70
2018-10-04T22:42:07.890Z,5.60
2018-10-04T22:44:36.405Z,5.50
2018-10-04T22:47:04.885Z,5.50
2018-10-04T22:49:33.327Z,5.40
2018-10-04T22:52:01.869Z,5.50
2018-10-04T22:54:30.297Z,5.40
2018-10-04T22:56:58.782Z,5.30
2018-10-04T22:59:27.300Z,5.20
2018-10-04T23:01:55.719Z,5.20
2018-10-04T23:04:24.149Z,5.20
2018-10-04T23:06:52.583Z,5.20
2018-10-04T23:09:21.190Z,5.30
2018-10-04T23:11:49.695Z,5.20
2018-10-04T23:14:18.161Z,5.20
2018-10-04T23:16:46.643Z,5.20
2018-10-04T23:19:15.065Z,5.10
2018-10-04T23:21:43.489Z,5.10
2018-10-04T23:24:11.854Z,4.90
2018-10-04T23:26:40.294Z,5.00
2018-10-04T23:29:08.842Z,4.90
2018-10-04T23:31:37.300Z,4.90
2018-10-04T23:34:05.786Z,4.90
2018-10-04T23:36:34.236Z,4.80
2018-10-04T23:39:02.712Z,4.70
2018-10-04T23:41:31.122Z,4.70
2018-10-04T23:43:59.543Z,4.60
2018-10-04T23:46:28.049Z,4.60
2018-10-04T23:48:56.693Z,4.50
2018-10-04T23:51:25.126Z,4.50
2018-10-04T23:53:53.517Z,4.80
2018-10-04T23:56:22.210Z,4.70
2018-10-04T23:58:50.807Z,4.60
